Time;durP1;ratioP1;P1;durP2;ratioP2;P2;SDS_P1;SDS_P2;PMS_P1;PMS_P2;Temp;Humidity;BMP_temperature;BMP_pressure;BME280_temperature;BME280_humidity;BME280_pressure;Samples;Min_cycle;Max_cycle;Signal;HPM_P1;HPM_P2
2022/06/25 00:02:15;;;;;;;5.70;5.10;;;;;;;;;;5027193;28;21037;-69
2022/06/25 00:07:26;;;;;;;5.00;4.30;;;;;;;;;;5027941;28;20968;-67
2022/06/25 00:09:52;;;;;;;7.23;4.13;;;;;;;;;;5027085;28;20423;-67
2022/06/25 00:12:33;;;;;;;5.27;4.77;;;;;;;;;;5027521;28;20426;-68
2022/06/25 00:15:03;;;;;;;7.00;5.00;;;;;;;;;;5028462;28;20398;-67
2022/06/25 00:17:29;;;;;;;5.63;4.90;;;;;;;;;;5023175;28;20412;-67
2022/06/25 00:19:56;;;;;;;6.73;5.17;;;;;;;;;;5016079;28;20422;-67
2022/06/25 00:22:22;;;;;;;8.73;5.50;;;;;;;;;;5010398;28;20822;-67
2022/06/25 00:24:48;;;;;;;6.33;5.60;;;;;;;;;;5027699;28;20408;-67
2022/06/25 00:27:14;;;;;;;8.90;5.50;;;;;;;;;;5027882;28;20422;-67
2022/06/25 00:29:40;;;;;;;6.33;5.73;;;;;;;;;;5027917;28;20414;-67
2022/06/25 00:32:09;;;;;;;5.90;5.30;;;;;;;;;;5027786;28;20419;-67
2022/06/25 00:34:35;;;;;;;8.63;5.50;;;;;;;;;;5027838;28;20415;-67
2022/06/25 00:37:01;;;;;;;8.03;5.57;;;;;;;;;;5027852;28;20422;-67
2022/06/25 00:39:27;;;;;;;9.23;6.23;;;;;;;;;;5027252;28;20413;-67
2022/06/25 00:41:53;;;;;;;11.03;5.77;;;;;;;;;;5010128;28;20465;-67
2022/06/25 00:44:20;;;;;;;8.17;6.50;;;;;;;;;;5028228;28;20828;-67
2022/06/25 00:46:49;;;;;;;6.63;5.70;;;;;;;;;;5027910;28;20458;-67
2022/06/25 00:49:15;;;;;;;8.77;6.07;;;;;;;;;;5027330;28;20466;-67
2022/06/25 00:51:42;;;;;;;7.37;5.57;;;;;;;;;;5028113;28;20508;-67
2022/06/25 00:54:10;;;;;;;11.10;5.83;;;;;;;;;;5026621;28;20514;-66
2022/06/25 00:56:38;;;;;;;6.07;5.47;;;;;;;;;;5019627;28;20422;-67
2022/06/25 00:59:04;;;;;;;10.53;6.37;;;;;;;;;;5026941;28;20414;-66
2022/06/25 01:01:33;;;;;;;6.87;6.00;;;;;;;;;;5027193;28;20672;-66
2022/06/25 01:03:59;;;;;;;10.60;6.27;;;;;;;;;;5027840;28;20891;-66
2022/06/25 01:06:27;;;;;;;12.17;7.57;;;;;;;;;;5027724;28;20415;-66
2022/06/25 01:08:53;;;;;;;6.97;6.37;;;;;;;;;;5027110;28;20414;-66
2022/06/25 01:11:19;;;;;;;6.63;6.03;;;;;;;;;;5031856;28;20426;-66
2022/06/25 01:13:45;;;;;;;7.53;6.73;;;;;;;;;;5031090;28;20540;-65
2022/06/25 01:16:11;;;;;;;8.40;6.97;;;;;;;;;;5030878;28;20414;-66
2022/06/25 01:18:37;;;;;;;7.50;6.33;;;;;;;;;;5017038;28;20934;-66
2022/06/25 01:21:03;;;;;;;11.73;7.77;;;;;;;;;;5011870;28;20403;-66
2022/06/25 01:23:30;;;;;;;11.27;7.87;;;;;;;;;;5006915;28;20474;-66
2022/06/25 01:25:57;;;;;;;9.63;8.40;;;;;;;;;;5031073;28;20399;-66
2022/06/25 01:28:23;;;;;;;9.53;8.40;;;;;;;;;;5030069;28;20433;-66
2022/06/25 01:30:49;;;;;;;9.43;8.50;;;;;;;;;;5031311;28;20430;-66
2022/06/25 01:33:15;;;;;;;12.43;8.40;;;;;;;;;;5031277;28;20496;-66
2022/06/25 01:35:41;;;;;;;9.40;8.60;;;;;;;;;;5031343;28;20597;-67
2022/06/25 01:38:07;;;;;;;11.63;9.03;;;;;;;;;;5029363;28;20457;-67
2022/06/25 01:40:33;;;;;;;10.80;9.37;;;;;;;;;;5031031;28;20429;-67
2022/06/25 01:43:00;;;;;;;11.87;7.90;;;;;;;;;;5031334;28;20552;-66
2022/06/25 01:45:34;;;;;;;10.20;9.20;;;;;;;;;;5031681;28;20410;-66
2022/06/25 01:48:01;;;;;;;10.07;9.17;;;;;;;;;;5032105;28;20422;-66
2022/06/25 01:50:27;;;;;;;12.03;9.60;;;;;;;;;;5030511;28;20792;-66
2022/06/25 01:52:54;;;;;;;9.83;8.93;;;;;;;;;;5030250;28;20426;-65
2022/06/25 01:55:20;;;;;;;12.83;10.80;;;;;;;;;;5025401;28;20468;-66
2022/06/25 01:57:47;;;;;;;10.20;9.30;;;;;;;;;;5029821;28;20915;-65
2022/06/25 02:00:21;;;;;;;13.03;9.97;;;;;;;;;;5012416;28;20601;-65
2022/06/25 02:02:47;;;;;;;10.27;9.20;;;;;;;;;;5020771;28;20468;-66
2022/06/25 02:05:14;;;;;;;14.50;9.60;;;;;;;;;;5030422;28;20901;-66
2022/06/25 02:07:41;;;;;;;10.50;9.40;;;;;;;;;;5029826;28;20850;-67
2022/06/25 02:10:07;;;;;;;8.90;8.20;;;;;;;;;;5029381;28;20518;-66
2022/06/25 02:12:34;;;;;;;9.90;8.90;;;;;;;;;;5030564;28;20448;-66
2022/06/25 02:15:01;;;;;;;13.90;9.00;;;;;;;;;;5030577;28;20391;-65
2022/06/25 02:17:28;;;;;;;8.77;7.87;;;;;;;;;;5029530;28;20434;-66
2022/06/25 02:19:54;;;;;;;8.83;7.90;;;;;;;;;;5020267;28;20422;-66
2022/06/25 02:22:20;;;;;;;14.80;9.80;;;;;;;;;;5010856;28;21013;-67
2022/06/25 02:24:46;;;;;;;9.53;8.63;;;;;;;;;;5029602;28;20406;-68
2022/06/25 02:27:12;;;;;;;8.73;7.93;;;;;;;;;;5029605;28;20899;-67
2022/06/25 02:29:39;;;;;;;10.63;8.17;;;;;;;;;;5024018;28;20414;-67
2022/06/25 02:32:05;;;;;;;9.93;7.93;;;;;;;;;;5017087;28;20488;-68
2022/06/25 02:34:31;;;;;;;9.50;7.70;;;;;;;;;;5007089;28;20923;-69
2022/06/25 02:36:57;;;;;;;10.07;7.60;;;;;;;;;;5029610;28;21342;-67
2022/06/25 02:39:23;;;;;;;12.10;9.30;;;;;;;;;;5028018;28;20520;-67
2022/06/25 02:41:50;;;;;;;13.53;8.43;;;;;;;;;;5029734;28;20930;-67
2022/06/25 02:44:16;;;;;;;18.93;8.13;;;;;;;;;;5020928;28;20520;-67
2022/06/25 02:46:42;;;;;;;13.73;8.10;;;;;;;;;;5015865;28;20803;-67
2022/06/25 02:49:08;;;;;;;29.40;10.33;;;;;;;;;;5028892;28;20497;-66
2022/06/25 02:51:34;;;;;;;14.40;8.40;;;;;;;;;;5029070;28;20429;-67
2022/06/25 02:54:00;;;;;;;18.57;8.57;;;;;;;;;;5021023;28;20861;-68
2022/06/25 02:59:11;;;;;;;12.53;8.57;;;;;;;;;;5028931;28;20425;-68
2022/06/25 03:01:37;;;;;;;11.40;7.20;;;;;;;;;;5023997;28;20459;-67
2022/06/25 03:04:03;;;;;;;15.17;7.57;;;;;;;;;;5010096;28;20432;-67
2022/06/25 03:06:29;;;;;;;14.97;8.40;;;;;;;;;;5014335;28;20978;-67
2022/06/25 03:08:56;;;;;;;12.23;7.83;;;;;;;;;;5028318;28;20429;-67
2022/06/25 03:11:22;;;;;;;25.50;7.90;;;;;;;;;;5024902;28;20544;-67
2022/06/25 03:13:48;;;;;;;9.37;7.80;;;;;;;;;;5028798;28;20832;-67
2022/06/25 03:16:15;;;;;;;12.37;8.33;;;;;;;;;;5028567;28;20778;-67
2022/06/25 03:18:41;;;;;;;10.97;8.10;;;;;;;;;;5006199;28;20927;-69
2022/06/25 03:21:07;;;;;;;14.63;8.03;;;;;;;;;;5031221;28;20422;-67
2022/06/25 03:23:33;;;;;;;16.60;8.47;;;;;;;;;;5026527;28;20672;-67
2022/06/25 03:25:59;;;;;;;12.13;8.23;;;;;;;;;;5027154;28;20406;-67
2022/06/25 03:28:25;;;;;;;12.73;7.53;;;;;;;;;;5025921;28;20425;-67
2022/06/25 03:30:51;;;;;;;13.13;8.27;;;;;;;;;;5026852;28;20399;-69
2022/06/25 03:33:17;;;;;;;14.40;8.13;;;;;;;;;;5025598;28;20446;-67
2022/06/25 03:35:43;;;;;;;16.47;9.93;;;;;;;;;;5026354;28;20974;-67
2022/06/25 03:38:09;;;;;;;10.20;7.83;;;;;;;;;;5025458;28;20426;-67
2022/06/25 03:40:35;;;;;;;9.50;8.60;;;;;;;;;;5026844;28;20434;-67
2022/06/25 03:43:01;;;;;;;10.80;7.60;;;;;;;;;;5026754;28;20458;-67
2022/06/25 03:45:27;;;;;;;8.83;7.90;;;;;;;;;;5026585;28;20394;-67
2022/06/25 03:47:54;;;;;;;9.93;7.60;;;;;;;;;;5025291;28;20413;-68
2022/06/25 03:50:20;;;;;;;7.50;6.60;;;;;;;;;;5026221;28;20426;-67
2022/06/25 03:52:47;;;;;;;12.23;8.40;;;;;;;;;;5027993;28;20437;-67
2022/06/25 03:55:14;;;;;;;96.17;14.37;;;;;;;;;;5021162;28;20798;-66
2022/06/25 03:57:40;;;;;;;12.60;7.87;;;;;;;;;;5028133;28;20422;-65
2022/06/25 04:00:07;;;;;;;20.80;8.80;;;;;;;;;;5028952;28;20488;-66
2022/06/25 04:02:33;;;;;;;19.17;8.90;;;;;;;;;;5027980;28;20685;-67
2022/06/25 04:05:00;;;;;;;10.63;8.40;;;;;;;;;;5028703;28;20406;-66
2022/06/25 04:07:26;;;;;;;14.73;8.03;;;;;;;;;;5027485;28;20462;-68
2022/06/25 04:09:52;;;;;;;14.10;8.67;;;;;;;;;;5025317;28;20413;-67
2022/06/25 04:12:18;;;;;;;11.77;8.20;;;;;;;;;;5026054;28;20797;-68
2022/06/25 04:14:44;;;;;;;10.33;8.20;;;;;;;;;;5026039;28;20449;-67
2022/06/25 04:17:11;;;;;;;9.40;7.63;;;;;;;;;;5024166;28;20410;-67
2022/06/25 04:19:40;;;;;;;18.97;9.60;;;;;;;;;;5016632;28;20423;-67
2022/06/25 04:22:09;;;;;;;23.43;8.63;;;;;;;;;;5033755;28;20494;-67
2022/06/25 04:24:36;;;;;;;30.67;9.23;;;;;;;;;;5026684;28;20407;-65
2022/06/25 04:27:02;;;;;;;19.40;8.43;;;;;;;;;;5028671;28;20414;-67
2022/06/25 04:29:28;;;;;;;21.93;8.67;;;;;;;;;;5010014;28;20410;-68
2022/06/25 04:31:54;;;;;;;35.30;11.73;;;;;;;;;;5028263;28;20433;-68
2022/06/25 04:34:20;;;;;;;24.10;9.80;;;;;;;;;;5028315;28;20442;-67
2022/06/25 04:36:47;;;;;;;20.63;9.53;;;;;;;;;;5027622;28;20520;-68
2022/06/25 04:39:13;;;;;;;20.83;8.40;;;;;;;;;;5026751;28;20509;-67
2022/06/25 04:41:39;;;;;;;28.57;9.80;;;;;;;;;;5028535;28;20828;-68
2022/06/25 04:44:06;;;;;;;11.20;9.13;;;;;;;;;;5029821;28;20426;-69
2022/06/25 04:46:32;;;;;;;22.83;9.40;;;;;;;;;;5031843;28;20438;-67
2022/06/25 04:48:58;;;;;;;27.80;8.80;;;;;;;;;;5030824;28;20407;-69
2022/06/25 04:51:25;;;;;;;25.33;9.20;;;;;;;;;;5031404;28;20429;-68
2022/06/25 04:53:57;;;;;;;42.27;9.73;;;;;;;;;;5024847;28;20423;-69
2022/06/25 04:56:23;;;;;;;39.97;9.43;;;;;;;;;;5012847;28;20391;-67
2022/06/25 04:58:49;;;;;;;29.90;12.00;;;;;;;;;;5011402;28;20406;-67
2022/06/25 05:01:16;;;;;;;20.87;9.70;;;;;;;;;;5031045;28;20489;-67
2022/06/25 05:03:42;;;;;;;19.30;8.67;;;;;;;;;;5033286;28;20460;-69
2022/06/25 05:06:08;;;;;;;16.83;8.80;;;;;;;;;;5033046;28;20402;-69
2022/06/25 05:08:35;;;;;;;14.70;9.07;;;;;;;;;;5026077;28;20406;-69
2022/06/25 05:11:01;;;;;;;8.50;7.60;;;;;;;;;;5030088;28;20421;-67
2022/06/25 05:13:27;;;;;;;9.67;8.53;;;;;;;;;;5032402;28;20444;-69
2022/06/25 05:15:53;;;;;;;20.53;9.07;;;;;;;;;;5032614;28;20417;-68
2022/06/25 05:18:19;;;;;;;22.87;8.87;;;;;;;;;;5030435;28;20474;-69
2022/06/25 05:20:46;;;;;;;26.40;11.23;;;;;;;;;;5034992;28;20491;-68
2022/06/25 05:23:12;;;;;;;20.90;9.73;;;;;;;;;;5042410;28;20453;-69
2022/06/25 05:25:39;;;;;;;22.47;10.03;;;;;;;;;;5032952;28;20437;-69
2022/06/25 05:28:05;;;;;;;18.40;9.47;;;;;;;;;;5032615;28;20449;-69
2022/06/25 05:30:32;;;;;;;11.30;9.73;;;;;;;;;;5032018;28;20767;-67
2022/06/25 05:32:58;;;;;;;14.80;10.30;;;;;;;;;;5030720;28;20565;-67
2022/06/25 05:35:24;;;;;;;27.33;11.57;;;;;;;;;;5030543;28;20768;-69
2022/06/25 05:37:50;;;;;;;20.80;12.80;;;;;;;;;;5016676;28;20409;-69
2022/06/25 05:40:16;;;;;;;25.53;12.63;;;;;;;;;;5031050;28;20414;-69
2022/06/25 05:42:42;;;;;;;27.43;14.63;;;;;;;;;;5031966;28;20458;-69
2022/06/25 05:45:09;;;;;;;21.97;13.43;;;;;;;;;;5031568;28;20410;-70
2022/06/25 05:47:35;;;;;;;76.50;16.00;;;;;;;;;;5022394;28;20426;-70
2022/06/25 05:50:01;;;;;;;69.87;17.47;;;;;;;;;;5021705;28;20446;-71
2022/06/25 05:52:27;;;;;;;43.00;11.63;;;;;;;;;;5029364;28;20427;-70
2022/06/25 05:54:54;;;;;;;46.47;13.90;;;;;;;;;;5030306;28;20410;-70
2022/06/25 05:57:20;;;;;;;19.70;11.40;;;;;;;;;;5029948;28;20922;-71
2022/06/25 05:59:46;;;;;;;36.03;12.37;;;;;;;;;;5030043;28;20469;-70
2022/06/25 06:02:12;;;;;;;29.10;12.67;;;;;;;;;;5030123;28;20454;-71
2022/06/25 06:04:38;;;;;;;36.07;13.70;;;;;;;;;;5030437;28;20469;-71
2022/06/25 06:07:05;;;;;;;23.57;11.30;;;;;;;;;;5030090;28;20969;-71
2022/06/25 06:09:32;;;;;;;20.80;13.90;;;;;;;;;;5025564;28;20494;-70
2022/06/25 06:11:58;;;;;;;28.33;13.67;;;;;;;;;;5028515;28;20457;-70
2022/06/25 06:14:24;;;;;;;15.63;11.87;;;;;;;;;;5028932;28;20954;-70
2022/06/25 06:16:50;;;;;;;42.37;14.87;;;;;;;;;;5028834;28;20458;-70
2022/06/25 06:19:17;;;;;;;26.43;13.47;;;;;;;;;;5027408;28;20418;-70
2022/06/25 06:21:43;;;;;;;30.83;14.73;;;;;;;;;;5034460;28;20465;-70
2022/06/25 06:24:09;;;;;;;31.17;12.93;;;;;;;;;;5029789;28;20454;-71
2022/06/25 06:26:35;;;;;;;34.93;14.80;;;;;;;;;;5012013;28;20419;-71
2022/06/25 06:29:02;;;;;;;24.60;15.10;;;;;;;;;;5029466;28;20405;-70
2022/06/25 06:31:28;;;;;;;25.70;14.50;;;;;;;;;;5030159;28;20410;-69
2022/06/25 06:33:54;;;;;;;20.57;16.03;;;;;;;;;;5029446;28;20437;-68
2022/06/25 06:36:20;;;;;;;26.73;17.27;;;;;;;;;;5030106;28;20419;-68
2022/06/25 06:38:46;;;;;;;26.07;17.90;;;;;;;;;;5028611;28;20568;-69
2022/06/25 06:41:17;;;;;;;24.57;16.53;;;;;;;;;;5029810;28;20474;-67
2022/06/25 06:43:43;;;;;;;27.43;15.70;;;;;;;;;;5030024;28;20519;-68
2022/06/25 06:46:09;;;;;;;24.33;15.80;;;;;;;;;;5030038;28;20426;-67
2022/06/25 06:48:36;;;;;;;23.80;17.23;;;;;;;;;;5028655;28;20949;-68
2022/06/25 06:51:02;;;;;;;37.23;18.00;;;;;;;;;;5029064;28;20921;-68
2022/06/25 06:53:28;;;;;;;31.27;16.77;;;;;;;;;;5020526;28;20445;-68
2022/06/25 06:55:55;;;;;;;22.20;17.80;;;;;;;;;;5020168;28;20442;-68
2022/06/25 06:58:21;;;;;;;32.80;18.47;;;;;;;;;;5026941;28;20759;-68
2022/06/25 07:00:47;;;;;;;30.47;16.17;;;;;;;;;;5030309;28;20484;-68
2022/06/25 07:03:13;;;;;;;20.77;15.80;;;;;;;;;;5028858;28;20473;-67
2022/06/25 07:05:39;;;;;;;27.50;14.63;;;;;;;;;;5029949;28;20418;-69
2022/06/25 07:08:05;;;;;;;25.43;14.33;;;;;;;;;;5027411;28;20407;-69
2022/06/25 07:10:31;;;;;;;22.50;13.20;;;;;;;;;;5028609;28;20417;-68
2022/06/25 07:12:57;;;;;;;18.70;13.77;;;;;;;;;;5029081;28;20605;-68
2022/06/25 07:15:23;;;;;;;18.13;13.13;;;;;;;;;;5028981;28;20422;-68
2022/06/25 07:17:50;;;;;;;68.33;14.70;;;;;;;;;;5003567;28;20419;-68
2022/06/25 07:20:16;;;;;;;37.23;14.70;;;;;;;;;;5026593;28;20738;-69
2022/06/25 07:22:42;;;;;;;33.83;12.30;;;;;;;;;;5028482;28;20523;-69
2022/06/25 07:25:08;;;;;;;27.00;12.13;;;;;;;;;;5028052;28;20410;-69
2022/06/25 07:27:34;;;;;;;14.63;10.80;;;;;;;;;;5028677;28;20409;-70
2022/06/25 07:30:00;;;;;;;73.70;16.80;;;;;;;;;;5028210;28;20410;-70
2022/06/25 07:32:26;;;;;;;12.90;11.73;;;;;;;;;;5028336;28;20441;-71
2022/06/25 07:34:52;;;;;;;13.97;12.03;;;;;;;;;;5010625;28;20437;-69
2022/06/25 07:37:18;;;;;;;15.93;10.87;;;;;;;;;;5028430;28;20459;-68
2022/06/25 07:39:44;;;;;;;21.30;10.23;;;;;;;;;;5027856;28;20755;-68
2022/06/25 07:42:10;;;;;;;11.40;10.30;;;;;;;;;;5029158;28;20542;-69
2022/06/25 07:44:37;;;;;;;19.87;9.73;;;;;;;;;;5028886;28;21106;-68
2022/06/25 07:47:03;;;;;;;38.13;11.50;;;;;;;;;;5023635;28;20407;-71
2022/06/25 07:49:29;;;;;;;19.37;9.50;;;;;;;;;;5008878;28;20893;-69
2022/06/25 07:51:59;;;;;;;9.40;8.70;;;;;;;;;;5023802;28;20410;-69
2022/06/25 07:54:26;;;;;;;13.63;9.00;;;;;;;;;;5027931;28;20555;-70
2022/06/25 07:56:52;;;;;;;15.33;9.33;;;;;;;;;;5007723;28;20461;-69
2022/06/25 07:59:19;;;;;;;17.10;8.83;;;;;;;;;;5013829;28;20942;-70
2022/06/25 08:01:45;;;;;;;30.93;10.50;;;;;;;;;;5017013;28;20423;-69
2022/06/25 08:04:11;;;;;;;30.40;10.27;;;;;;;;;;5028710;28;20466;-70
2022/06/25 08:06:39;;;;;;;17.53;8.83;;;;;;;;;;5029374;28;20430;-70
2022/06/25 08:09:06;;;;;;;23.87;8.90;;;;;;;;;;5026992;28;20607;-69
2022/06/25 08:11:32;;;;;;;24.27;8.67;;;;;;;;;;5027489;28;20472;-70
2022/06/25 08:13:58;;;;;;;10.30;6.97;;;;;;;;;;5025994;28;20544;-70
2022/06/25 08:16:25;;;;;;;12.80;6.20;;;;;;;;;;5015362;28;20485;-68
2022/06/25 08:18:54;;;;;;;21.40;6.50;;;;;;;;;;5016173;28;20411;-68
2022/06/25 08:21:20;;;;;;;23.00;8.07;;;;;;;;;;5026526;28;21147;-72
2022/06/25 08:23:47;;;;;;;6.47;5.77;;;;;;;;;;5031919;28;20475;-70
2022/06/25 08:26:13;;;;;;;6.13;5.63;;;;;;;;;;5028490;28;20457;-68
2022/06/25 08:28:39;;;;;;;9.20;5.53;;;;;;;;;;5021570;28;20464;-68
2022/06/25 08:31:05;;;;;;;63.47;10.90;;;;;;;;;;5021941;28;20506;-68
2022/06/25 08:33:31;;;;;;;33.50;9.17;;;;;;;;;;5030724;28;20505;-68
2022/06/25 08:35:57;;;;;;;48.60;7.93;;;;;;;;;;5032375;28;20422;-68
2022/06/25 08:38:23;;;;;;;14.83;5.97;;;;;;;;;;5030099;28;21080;-67
2022/06/25 08:40:50;;;;;;;7.87;4.10;;;;;;;;;;5031880;28;20537;-68
2022/06/25 08:43:16;;;;;;;8.07;4.33;;;;;;;;;;5031879;28;20461;-68
2022/06/25 08:45:42;;;;;;;12.33;5.00;;;;;;;;;;5031919;28;20781;-68
2022/06/25 08:48:15;;;;;;;18.43;6.00;;;;;;;;;;5029556;28;20453;-68
2022/06/25 08:50:42;;;;;;;4.77;3.03;;;;;;;;;;5031910;28;20433;-68
2022/06/25 08:53:09;;;;;;;4.00;2.87;;;;;;;;;;5021663;28;20442;-68
2022/06/25 08:55:38;;;;;;;14.37;4.17;;;23.40;99.90;;;;;;5004311;28;20531;-68
2022/06/25 08:58:06;;;;;;;6.13;2.67;;;23.50;99.90;;;;;;5026785;28;20559;-68
2022/06/25 09:00:35;;;;;;;8.00;3.00;;;23.30;99.90;;;;;;5030233;28;20430;-68
2022/06/25 09:03:01;;;;;;;7.13;2.50;;;;;;;;;;5029034;28;20461;-69
2022/06/25 09:05:29;;;;;;;8.73;2.33;;;22.80;99.90;;;;;;5029350;28;20424;-69
2022/06/25 09:07:56;;;;;;;7.33;2.67;;;22.90;99.90;;;;;;5027619;28;20446;-69
2022/06/25 09:10:24;;;;;;;20.23;4.17;;;23.30;99.90;;;;;;5027382;28;20425;-69
2022/06/25 09:12:55;;;;;;;4.13;2.53;;;23.50;99.90;;;;;;5029046;28;20488;-69
2022/06/25 09:15:28;;;;;;;6.37;3.20;;;23.70;99.90;;;;;;5028535;28;20456;-67
2022/06/25 09:17:54;;;;;;;7.73;2.57;;;23.90;99.90;;;;;;5020737;28;20446;-69
2022/06/25 09:20:21;;;;;;;3.10;2.80;;;23.80;99.90;;;;;;5015003;28;20811;-69
2022/06/25 09:22:54;;;;;;;5.70;2.80;;;23.40;99.90;;;;;;5000835;28;20274;-70
2022/06/25 09:25:28;;;;;;;4.57;2.87;;;20.60;99.90;;;;;;5023307;28;20415;-71
2022/06/25 09:27:56;;;;;;;4.90;2.23;;;23.70;99.90;;;;;;5006181;28;20437;-69
2022/06/25 09:30:24;;;;;;;2.80;2.40;;;23.30;99.90;;;;;;5022489;28;20423;-70
2022/06/25 09:32:54;;;;;;;16.40;3.60;;;23.00;99.90;;;;;;5011818;28;20427;-70
2022/06/25 09:35:33;;;;;;;9.70;2.50;;;23.50;99.90;;;;;;5008658;28;20942;-68
2022/06/25 09:38:04;;;;;;;4.73;2.07;;;23.50;99.90;;;;;;5007561;28;20419;-68
2022/06/25 09:40:31;;;;;;;27.17;4.10;;;23.90;99.90;;;;;;5006897;28;20629;-68
2022/06/25 09:43:09;;;;;;;3.43;2.30;;;23.80;99.90;;;;;;5008566;28;20455;-69
2022/06/25 09:45:36;;;;;;;2.43;2.13;;;23.30;99.90;;;;;;5008331;28;20406;-70
2022/06/25 09:48:02;;;;;;;3.00;2.10;;;22.80;99.90;;;;;;5007441;28;20406;-69
2022/06/25 09:50:28;;;;;;;2.43;2.23;;;22.90;99.90;;;;;;5009109;28;20410;-67
2022/06/25 09:53:01;;;;;;;7.27;3.03;;;22.70;99.90;;;;;;5027769;28;20438;-69
2022/06/25 09:55:33;;;;;;;7.10;2.70;;;23.30;99.90;;;;;;5018543;28;20411;-70
2022/06/25 09:58:02;;;;;;;9.00;2.90;;;23.90;99.90;;;;;;5026875;28;20596;-71
2022/06/25 10:00:28;;;;;;;8.40;3.00;;;24.20;99.90;;;;;;5045185;28;20505;-70
2022/06/25 10:02:56;;;;;;;14.77;3.30;;;24.20;99.90;;;;;;5047307;28;21009;-70
2022/06/25 10:05:37;;;;;;;4.27;2.67;;;24.30;99.90;;;;;;5048387;28;20929;-69
2022/06/25 10:08:09;;;;;;;11.70;2.97;;;24.50;99.90;;;;;;5048098;28;20732;-70
2022/06/25 10:10:40;;;;;;;6.30;3.53;;;24.60;99.90;;;;;;5048038;28;20426;-68
2022/06/25 10:13:07;;;;;;;7.37;2.40;;;24.40;99.90;;;;;;5046590;28;20970;-69
2022/06/25 10:15:33;;;;;;;3.33;2.20;;;24.30;99.90;;;;;;5030828;28;20566;-70
2022/06/25 10:18:04;;;;;;;2.17;1.97;;;24.50;99.90;;;;;;5015272;28;20517;-69
2022/06/25 10:20:31;;;;;;;2.83;2.60;;;24.50;99.90;;;;;;5009003;28;20435;-70
2022/06/25 10:22:59;;;;;;;3.10;2.23;;;24.70;99.90;;;;;;5024496;28;20458;-69
2022/06/25 10:25:27;;;;;;;2.40;2.20;;;24.50;99.90;;;;;;5025886;28;20414;-67
2022/06/25 10:28:07;;;;;;;3.13;2.27;;;24.30;99.90;;;;;;5016647;28;20925;-70
2022/06/25 10:30:37;;;;;;;3.37;2.60;;;24.20;99.90;;;;;;5011066;28;20621;-69
2022/06/25 10:33:03;;;;;;;2.93;2.33;;;25.00;99.90;;;;;;5027410;28;20524;-68
2022/06/25 10:35:35;;;;;;;4.20;2.23;;;23.90;99.90;;;;;;5027197;28;20536;-68
2022/06/25 10:38:07;;;;;;;2.30;2.10;;;23.80;99.90;;;;;;5026908;28;20644;-68
2022/06/25 10:40:53;;;;;;;8.57;2.67;;;23.90;99.90;;;;;;5027155;28;20787;-69
2022/06/25 10:43:37;;;;;;;2.60;2.00;;;24.00;99.90;;;;;;5008269;28;20561;-67
2022/06/25 10:46:26;;;;;;;6.80;2.20;;;24.40;99.90;;;;;;5027861;28;20438;-68
2022/06/25 10:48:55;;;;;;;4.07;2.17;;;24.70;99.90;;;;;;5021789;28;20437;-69
2022/06/25 10:51:28;;;;;;;3.20;2.30;;;;;;;;;;5017456;28;20867;-69
2022/06/25 10:53:54;;;;;;;2.17;1.93;;;23.80;99.90;;;;;;5021565;28;20431;-68
2022/06/25 10:56:20;;;;;;;3.37;2.33;;;23.20;99.90;;;;;;5010157;28;20408;-67
2022/06/25 10:58:47;;;;;;;3.27;2.07;;;23.30;99.90;;;;;;5009674;28;20907;-67
2022/06/25 11:01:22;;;;;;;2.80;2.07;;;23.30;99.90;;;;;;5011532;28;20285;-68
2022/06/25 11:03:55;;;;;;;7.33;2.57;;;23.20;99.90;;;;;;5027266;28;20469;-69
2022/06/25 11:06:32;;;;;;;4.00;2.00;;;23.60;99.90;;;;;;5012606;28;20509;-68
2022/06/25 11:09:15;;;;;;;2.77;1.70;;;23.90;99.90;;;;;;5017617;28;20418;-68
2022/06/25 11:11:45;;;;;;;3.60;2.20;;;24.40;99.90;;;;;;5026996;28;20450;-69
2022/06/25 11:14:21;;;;;;;2.07;1.87;;;23.70;99.90;;;;;;5026242;28;20438;-68
2022/06/25 11:16:48;;;;;;;10.73;2.73;;;23.60;99.90;;;;;;5026100;28;20450;-66
2022/06/25 11:19:13;;;;;;;3.00;2.10;;;23.50;99.90;;;;;;5018021;28;20558;-69
2022/06/25 11:21:42;;;;;;;5.33;2.27;;;23.70;99.90;;;;;;5025510;28;20938;-68
2022/06/25 11:24:24;;;;;;;3.53;1.80;;;23.80;99.90;;;;;;5025944;28;20260;-67
2022/06/25 11:29:46;;;;;;;2.77;2.23;;;23.60;99.90;;;;;;5026630;28;20456;-68
2022/06/25 11:32:14;;;;;;;3.70;2.33;;;23.60;99.90;;;;;;5025313;28;20419;-67
2022/06/25 11:34:40;;;;;;;2.00;1.73;;;23.60;99.90;;;;;;5025818;28;20421;-67
2022/06/25 11:37:08;;;;;;;1.97;1.70;;;23.70;99.90;;;;;;5026461;28;20795;-67
2022/06/25 11:39:36;;;;;;;2.90;1.73;;;23.70;99.90;;;;;;5025409;28;21024;-67
2022/06/25 11:42:04;;;;;;;4.67;1.90;;;23.70;99.90;;;;;;5025460;28;20473;-68
2022/06/25 11:44:40;;;;;;;2.77;2.13;;;23.90;99.90;;;;;;5026049;28;20489;-70
2022/06/25 11:47:06;;;;;;;7.90;2.33;;;24.30;99.90;;;;;;5025389;28;20430;-68
2022/06/25 11:49:37;;;;;;;7.57;2.47;;;24.40;99.90;;;;;;5026315;28;20453;-68
2022/06/25 11:52:05;;;;;;;3.40;1.80;;;24.30;99.90;;;;;;5025394;28;20214;-68
2022/06/25 11:54:32;;;;;;;2.03;1.67;;;23.90;99.90;;;;;;5023377;28;20411;-70
2022/06/25 11:56:58;;;;;;;2.87;1.90;;;23.70;99.90;;;;;;5025971;28;20414;-70
2022/06/25 11:59:30;;;;;;;1.87;1.70;;;23.60;99.90;;;;;;5016888;28;20426;-70
2022/06/25 12:01:58;;;;;;;5.00;2.20;;;23.40;99.90;;;;;;5012524;28;20206;-72
2022/06/25 12:04:24;;;;;;;3.40;1.77;;;23.20;99.90;;;;;;5026701;28;20442;-68
2022/06/25 12:06:50;;;;;;;1.90;1.53;;;23.20;99.90;;;;;;5015696;28;20407;-69
2022/06/25 12:09:18;;;;;;;5.90;2.00;;;23.80;99.90;;;;;;5005240;28;20498;-69
2022/06/25 12:11:51;;;;;;;3.03;1.60;;;23.70;99.90;;;;;;5022032;28;20170;-68
2022/06/25 12:14:22;;;;;;;6.03;1.77;;;23.80;99.90;;;;;;5006284;28;20538;-68
2022/06/25 12:16:49;;;;;;;4.33;1.70;;;24.10;99.90;;;;;;5003728;28;20454;-68
2022/06/25 12:19:16;;;;;;;2.20;1.80;;;24.10;99.90;;;;;;5024353;28;20887;-68
2022/06/25 12:21:42;;;;;;;2.17;1.60;;;24.00;99.90;;;;;;5023208;28;20419;-69
2022/06/25 12:24:12;;;;;;;6.30;1.87;;;23.90;99.90;;;;;;5004187;28;20501;-68
2022/06/25 12:26:41;;;;;;;2.30;1.73;;;24.00;99.90;;;;;;5023338;28;20604;-66
2022/06/25 12:29:15;;;;;;;3.20;1.80;;;24.20;99.90;;;;;;5018002;28;20736;-68
2022/06/25 12:31:49;;;;;;;7.10;2.00;;;24.40;99.90;;;;;;5026638;28;21278;-69
2022/06/25 12:34:15;;;;;;;5.00;1.93;;;24.50;99.90;;;;;;5027381;28;20426;-68
2022/06/25 12:36:41;;;;;;;5.03;2.10;;;24.20;99.90;;;;;;5028287;28;20593;-69
2022/06/25 12:39:34;;;;;;;22.23;3.73;;;24.40;99.90;;;;;;5024483;28;20168;-69
2022/06/25 12:42:13;;;;;;;3.37;1.80;;;24.60;99.90;;;;;;5025756;28;20199;-68
2022/06/25 12:44:40;;;;;;;3.67;1.60;;;25.00;99.90;;;;;;5025861;28;20962;-66
2022/06/25 12:47:15;;;;;;;1.90;1.57;;;25.20;99.90;;;;;;5023086;28;20802;-67
2022/06/25 12:49:44;;;;;;;4.00;1.83;;;;;;;;;;5024458;28;20521;-68
2022/06/25 12:52:11;;;;;;;4.33;1.70;;;25.00;99.90;;;;;;5025930;28;20402;-66
2022/06/25 12:54:49;;;;;;;2.37;1.57;;;24.90;99.90;;;;;;5023826;28;20812;-66
2022/06/25 12:57:28;;;;;;;2.90;1.50;;;24.60;99.90;;;;;;5024370;28;20397;-67
2022/06/25 12:59:56;;;;;;;6.73;1.73;;;24.40;99.90;;;;;;5041032;28;20493;-67
2022/06/25 13:02:23;;;;;;;2.87;1.23;;;24.40;99.90;;;;;;5047914;28;20482;-67
2022/06/25 13:04:50;;;;;;;2.77;1.53;;;24.60;99.90;;;;;;5051107;28;20409;-66
2022/06/25 13:07:16;;;;;;;7.77;2.03;;;24.90;99.90;;;;;;5054642;28;20516;-67
2022/06/25 13:09:44;;;;;;;21.40;3.00;;;25.20;99.90;;;;;;5055010;28;20917;-67
2022/06/25 13:12:11;;;;;;;7.47;1.80;;;25.30;99.90;;;;;;5054018;28;20406;-66
2022/06/25 13:14:37;;;;;;;27.60;3.17;;;25.20;99.90;;;;;;5058104;28;20413;-67
2022/06/25 13:17:04;;;;;;;6.47;1.70;;;25.40;99.90;;;;;;5062928;28;20420;-67
2022/06/25 13:19:30;;;;;;;5.60;1.70;;;25.50;99.90;;;;;;5044339;28;20421;-67
2022/06/25 13:21:57;;;;;;;10.63;2.17;;;25.30;99.90;;;;;;5033679;28;20442;-66
2022/06/25 13:24:24;;;;;;;23.73;2.93;;;25.30;99.90;;;;;;5031176;28;20552;-66
2022/06/25 13:26:50;;;;;;;3.37;1.33;;;25.20;99.90;;;;;;5031141;28;20434;-66
2022/06/25 13:29:16;;;;;;;1.60;1.43;;;25.00;99.90;;;;;;5030295;28;20453;-66
2022/06/25 13:31:41;;;;;;;1.90;1.23;;;25.30;99.90;;;;;;5031290;28;20175;-66
2022/06/25 13:34:08;;;;;;;2.47;1.50;;;;;;;;;;5031193;28;20245;-66
2022/06/25 13:36:34;;;;;;;1.70;1.30;;;25.30;99.90;;;;;;5031624;28;20183;-67
2022/06/25 13:39:01;;;;;;;3.10;1.40;;;;;;;;;;5029871;28;20434;-67
2022/06/25 13:41:26;;;;;;;1.90;1.37;;;25.20;99.90;;;;;;5031426;28;20395;-67
2022/06/25 13:43:54;;;;;;;4.97;1.50;;;25.20;99.90;;;;;;5030607;28;20816;-67
2022/06/25 13:46:23;;;;;;;4.90;1.53;;;25.00;99.90;;;;;;5031553;28;20171;-66
2022/06/25 13:48:49;;;;;;;7.37;2.70;;;24.90;99.90;;;;;;5029812;28;20410;-67
2022/06/25 13:51:16;;;;;;;1.60;1.30;;;24.90;99.90;;;;;;5031005;28;20449;-67
2022/06/25 13:53:41;;;;;;;2.87;1.30;;;24.80;99.90;;;;;;5029643;28;20434;-66
2022/06/25 13:56:07;;;;;;;3.07;1.80;;;24.80;99.90;;;;;;5031030;28;20454;-68
2022/06/25 13:58:33;;;;;;;3.83;1.57;;;;;;;;;;5031614;28;20172;-67
2022/06/25 14:01:00;;;;;;;1.47;1.03;;;;;;;;;;5050890;28;20686;-67
2022/06/25 14:03:26;;;;;;;2.00;1.40;;;;;;;;;;5049527;28;20461;-67